Time;durP1;ratioP1;P1;durP2;ratioP2;P2;SDS_P1;SDS_P2;PMS_P1;PMS_P2;Temp;Humidity;BMP_temperature;BMP_pressure;BME280_temperature;BME280_humidity;BME280_pressure;Samples;Min_cycle;Max_cycle;Signal;HPM_P1;HPM_P2
2023/05/03 00:00:42;;;;;;;2.65;2.25;;;10.50;50.00;;;;;;5010418;28;20058;-46
2023/05/03 00:03:12;;;;;;;2.63;2.40;;;10.30;49.90;;;;;;5004115;28;20042;-46
2023/05/03 00:05:41;;;;;;;4.10;2.60;;;10.40;50.10;;;;;;5009496;28;20042;-44
2023/05/03 00:08:10;;;;;;;4.85;2.65;;;10.40;50.20;;;;;;5005007;28;20097;-48
2023/05/03 00:10:38;;;;;;;2.70;2.45;;;10.30;50.10;;;;;;5008192;28;20045;-47
2023/05/03 00:13:05;;;;;;;4.35;2.67;;;10.30;50.80;;;;;;4994792;28;20053;-50
2023/05/03 00:15:32;;;;;;;3.28;2.90;;;10.20;50.30;;;;;;5006869;28;20089;-44
2023/05/03 00:18:02;;;;;;;5.63;2.88;;;10.20;50.40;;;;;;5005650;28;20049;-47
2023/05/03 00:20:29;;;;;;;3.50;2.90;;;10.10;50.70;;;;;;5009992;28;20529;-47
2023/05/03 00:23:00;;;;;;;3.53;2.88;;;10.10;50.50;;;;;;5007815;28;20137;-49
2023/05/03 00:25:29;;;;;;;4.35;2.85;;;10.00;50.60;;;;;;5005932;28;20048;-46
2023/05/03 00:27:58;;;;;;;2.60;2.40;;;10.00;50.60;;;;;;5010074;28;20045;-47
2023/05/03 00:30:26;;;;;;;2.60;2.40;;;9.90;50.60;;;;;;4991704;28;20053;-46
2023/05/03 00:32:56;;;;;;;2.60;2.40;;;9.90;50.70;;;;;;5008151;28;20080;-47
2023/05/03 00:35:23;;;;;;;2.83;2.53;;;9.90;50.80;;;;;;5009313;28;20096;-50
2023/05/03 00:37:52;;;;;;;2.58;2.33;;;9.90;50.80;;;;;;5014321;28;20046;-48
2023/05/03 00:40:28;;;;;;;2.60;2.40;;;9.80;50.80;;;;;;4988050;28;20072;-46
2023/05/03 00:42:55;;;;;;;4.18;2.60;;;9.80;51.10;;;;;;5015244;28;20042;-46
2023/05/03 00:45:26;;;;;;;2.97;2.55;;;9.70;50.90;;;;;;4984241;28;20038;-45
2023/05/03 00:47:53;;;;;;;4.18;2.80;;;9.70;51.00;;;;;;5001153;28;20034;-46
2023/05/03 00:50:20;;;;;;;3.38;2.75;;;9.70;51.00;;;;;;5009684;28;20038;-48
2023/05/03 00:52:47;;;;;;;5.32;3.28;;;9.60;51.10;;;;;;5006017;28;20046;-46
2023/05/03 00:55:14;;;;;;;3.55;2.53;;;9.60;51.20;;;;;;5004438;28;20042;-44
2023/05/03 00:57:43;;;;;;;5.68;2.70;;;9.60;51.30;;;;;;5008888;28;20058;-46
2023/05/03 01:00:12;;;;;;;2.60;2.22;;;9.50;51.40;;;;;;5009211;28;20061;-46
2023/05/03 01:02:42;;;;;;;3.05;2.63;;;9.50;51.30;;;;;;4990013;28;20073;-47
2023/05/03 01:05:12;;;;;;;2.72;2.20;;;9.50;51.30;;;;;;4989784;28;20061;-44
2023/05/03 01:08:00;;;;;;;3.22;2.92;;;9.50;51.50;;;;;;5007215;28;20490;-50
2023/05/03 01:10:45;;;;;;;3.10;2.78;;;9.40;52.20;;;;;;4991380;28;20077;-50
2023/05/03 01:13:26;;;;;;;2.95;2.65;;;9.40;51.80;;;;;;5005602;28;20418;-46
2023/05/03 01:16:03;;;;;;;3.25;2.75;;;9.30;52.00;;;;;;4996902;28;20077;-45
2023/05/03 01:18:38;;;;;;;3.28;2.97;;;9.30;52.00;;;;;;4988606;28;20050;-46
2023/05/03 01:21:08;;;;;;;3.88;3.58;;;9.30;52.00;;;;;;5009058;28;20499;-44
2023/05/03 01:23:49;;;;;;;3.67;3.30;;;9.30;51.80;;;;;;5008617;28;20095;-47
2023/05/03 01:26:24;;;;;;;3.30;2.92;;;9.20;52.40;;;;;;5002085;28;20088;-46
2023/05/03 01:28:51;;;;;;;3.72;2.72;;;9.20;52.00;;;;;;5007726;28;20057;-47
2023/05/03 01:31:23;;;;;;;3.60;3.03;;;9.10;51.90;;;;;;5008913;28;20038;-50
2023/05/03 01:33:57;;;;;;;3.25;2.67;;;9.10;51.80;;;;;;5005715;28;20030;-45
2023/05/03 01:36:34;;;;;;;3.55;2.65;;;9.10;52.10;;;;;;4999507;28;20527;-47
2023/05/03 01:39:13;;;;;;;2.75;2.53;;;9.00;52.30;;;;;;5000240;28;20054;-48
2023/05/03 01:41:42;;;;;;;2.97;2.67;;;9.00;52.10;;;;;;5006334;28;20065;-45
2023/05/03 01:44:10;;;;;;;5.15;3.00;;;9.00;51.90;;;;;;5008373;28;20038;-46
2023/05/03 01:46:44;;;;;;;3.78;2.17;;;8.90;52.00;;;;;;4998271;28;20140;-46
2023/05/03 01:49:13;;;;;;;5.20;3.15;;;8.90;52.40;;;;;;5008855;28;20495;-45
2023/05/03 01:51:40;;;;;;;3.30;2.45;;;8.90;52.00;;;;;;4991064;28;20093;-47
2023/05/03 01:54:07;;;;;;;3.17;2.88;;;8.90;52.10;;;;;;5002546;28;20050;-49
2023/05/03 01:56:40;;;;;;;3.75;3.42;;;8.80;52.10;;;;;;5006806;28;20049;-45
2023/05/03 01:59:11;;;;;;;4.55;3.70;;;8.80;52.30;;;;;;4990618;28;20163;-47
2023/05/03 02:01:37;;;;;;;3.05;2.45;;;8.70;52.20;;;;;;4990220;28;20053;-47
2023/05/03 02:04:06;;;;;;;3.83;3.45;;;8.80;52.40;;;;;;5005258;28;20049;-47
2023/05/03 02:06:41;;;;;;;;;;;8.70;52.50;;;;;;5005946;28;20062;-45
2023/05/03 02:09:10;;;;;;;4.50;3.22;;;8.70;52.80;;;;;;5004845;28;19929;-47
2023/05/03 02:11:42;;;;;;;5.03;3.55;;;8.70;51.90;;;;;;5005172;28;20061;-46
2023/05/03 02:14:18;;;;;;;4.18;2.88;;;8.60;52.10;;;;;;4995420;28;20041;-48
2023/05/03 02:16:54;;;;;;;4.93;3.33;;;8.60;52.20;;;;;;5002966;28;20066;-48
2023/05/03 02:19:21;;;;;;;4.28;3.88;;;8.60;52.30;;;;;;5010190;28;20100;-45
2023/05/03 02:21:47;;;;;;;3.58;3.28;;;8.50;52.40;;;;;;5009490;28;20042;-46
2023/05/03 02:24:20;;;;;;;4.75;3.67;;;8.50;52.50;;;;;;5006032;28;20542;-47
2023/05/03 02:26:53;;;;;;;4.53;3.38;;;8.50;52.60;;;;;;4990649;28;20054;-45
2023/05/03 02:29:20;;;;;;;3.40;3.10;;;8.50;52.90;;;;;;4988838;28;20054;-46
2023/05/03 02:31:46;;;;;;;4.07;3.67;;;8.50;52.80;;;;;;5001292;28;20042;-45
2023/05/03 02:34:13;;;;;;;3.92;3.35;;;8.40;52.80;;;;;;5007409;28;20050;-48
2023/05/03 02:36:40;;;;;;;4.43;3.45;;;8.40;52.90;;;;;;4990541;28;20053;-50
2023/05/03 02:39:14;;;;;;;4.60;3.53;;;8.40;52.90;;;;;;5007703;28;20045;-47
2023/05/03 02:41:41;;;;;;;4.90;3.78;;;8.40;53.10;;;;;;4989556;28;20067;-47
2023/05/03 02:44:08;;;;;;;4.25;3.50;;;8.30;52.90;;;;;;4990738;28;20061;-45
2023/05/03 02:46:40;;;;;;;3.33;3.03;;;8.30;52.90;;;;;;4982555;28;20470;-46
2023/05/03 02:49:12;;;;;;;4.18;3.75;;;8.30;53.00;;;;;;5009712;28;20406;-46
2023/05/03 02:51:39;;;;;;;4.70;3.78;;;8.30;53.00;;;;;;5010434;28;20046;-46
2023/05/03 02:54:08;;;;;;;6.18;4.38;;;8.20;53.00;;;;;;5011267;28;20042;-49
2023/05/03 02:56:34;;;;;;;5.03;3.63;;;8.20;53.20;;;;;;5008155;28;20038;-44
2023/05/03 02:59:01;;;;;;;4.75;3.83;;;8.20;53.10;;;;;;4994803;28;20069;-46
2023/05/03 03:01:29;;;;;;;4.50;3.80;;;8.20;53.20;;;;;;4994846;28;20112;-47
2023/05/03 03:03:56;;;;;;;5.65;4.13;;;8.20;53.30;;;;;;4987019;28;20510;-46
2023/05/03 03:06:25;;;;;;;3.45;3.15;;;8.20;53.40;;;;;;4990357;28;20146;-47
2023/05/03 03:08:54;;;;;;;4.47;3.63;;;8.10;53.40;;;;;;5010253;28;20046;-45
2023/05/03 03:11:22;;;;;;;5.13;4.20;;;8.10;53.50;;;;;;5005085;28;20047;-46
2023/05/03 03:13:49;;;;;;;7.65;3.85;;;8.10;53.40;;;;;;4991498;28;20062;-47
2023/05/03 03:16:18;;;;;;;5.57;3.72;;;8.00;53.40;;;;;;5008955;28;20072;-44
2023/05/03 03:18:47;;;;;;;4.72;3.95;;;8.00;53.40;;;;;;5011033;28;20050;-46
2023/05/03 03:21:14;;;;;;;4.38;3.97;;;8.00;53.60;;;;;;4995148;28;20050;-46
2023/05/03 03:23:41;;;;;;;5.07;3.50;;;8.00;53.60;;;;;;4999009;28;20046;-45
2023/05/03 03:26:07;;;;;;;5.63;4.05;;;8.00;53.70;;;;;;5006180;28;20042;-46
2023/05/03 03:28:36;;;;;;;4.22;3.72;;;8.00;53.70;;;;;;4997714;28;20051;-46
2023/05/03 03:31:08;;;;;;;5.88;3.55;;;7.90;53.60;;;;;;4995401;28;20038;-44
2023/05/03 03:33:35;;;;;;;4.88;4.00;;;7.90;53.70;;;;;;5005975;28;20536;-46
2023/05/03 03:36:09;;;;;;;4.30;3.90;;;7.90;53.70;;;;;;4993206;28;20052;-46
2023/05/03 03:38:40;;;;;;;5.40;4.18;;;7.90;53.70;;;;;;4994095;28;20062;-46
2023/05/03 03:41:11;;;;;;;4.95;3.85;;;7.90;53.70;;;;;;4995213;28;20050;-45
2023/05/03 03:43:38;;;;;;;4.78;4.00;;;7.80;53.70;;;;;;4987853;28;20046;-47
2023/05/03 03:46:09;;;;;;;5.00;4.00;;;7.80;53.70;;;;;;4988264;28;20119;-45
2023/05/03 03:48:36;;;;;;;4.90;3.75;;;7.80;53.80;;;;;;4996511;28;20056;-45
2023/05/03 03:51:03;;;;;;;4.35;3.70;;;7.80;53.90;;;;;;4992727;28;20515;-45
2023/05/03 03:53:37;;;;;;;4.72;3.67;;;7.80;53.90;;;;;;4990208;28;20049;-46
2023/05/03 03:56:04;;;;;;;5.68;4.50;;;7.80;53.90;;;;;;5010393;28;20045;-45
2023/05/03 03:58:31;;;;;;;4.72;3.83;;;7.70;53.90;;;;;;5009207;28;20625;-45
2023/05/03 04:01:00;;;;;;;5.40;3.88;;;7.70;54.00;;;;;;4989129;28;20764;-46
2023/05/03 04:03:31;;;;;;;5.13;4.30;;;7.70;54.10;;;;;;5008722;28;20053;-45
2023/05/03 04:05:58;;;;;;;5.72;4.07;;;7.70;54.10;;;;;;5006983;28;20046;-45
2023/05/03 04:08:27;;;;;;;8.65;4.53;;;7.60;54.20;;;;;;4988186;28;20042;-45
2023/05/03 04:10:55;;;;;;;6.55;4.00;;;7.70;54.30;;;;;;5010955;28;20045;-45
2023/05/03 04:13:28;;;;;;;6.78;5.25;;;7.70;54.30;;;;;;5009691;28;20042;-44
2023/05/03 04:16:00;;;;;;;4.30;3.80;;;7.70;54.40;;;;;;4989204;28;20073;-46
2023/05/03 04:18:33;;;;;;;5.68;4.00;;;7.40;54.20;;;;;;5007411;28;20050;-43
2023/05/03 04:21:01;;;;;;;4.80;4.38;;;7.60;54.50;;;;;;4988702;28;20049;-45
2023/05/03 04:23:27;;;;;;;6.28;4.47;;;7.60;54.60;;;;;;4992331;28;20069;-46
2023/05/03 04:25:55;;;;;;;5.45;4.40;;;7.60;54.50;;;;;;5009222;28;20046;-47
2023/05/03 04:28:25;;;;;;;7.05;5.30;;;7.60;54.60;;;;;;4994225;28;20046;-45
2023/05/03 04:30:57;;;;;;;6.35;4.68;;;7.60;54.70;;;;;;4991649;28;20096;-45
2023/05/03 04:33:28;;;;;;;4.50;3.95;;;7.60;54.70;;;;;;4994911;28;20556;-44
2023/05/03 04:36:01;;;;;;;7.75;4.38;;;7.60;54.70;;;;;;5009350;28;20042;-44
2023/05/03 04:38:28;;;;;;;7.80;4.57;;;7.60;54.80;;;;;;4988667;28;20042;-45
2023/05/03 04:40:57;;;;;;;7.18;5.03;;;7.60;54.90;;;;;;5014637;28;20053;-46
2023/05/03 04:43:24;;;;;;;4.70;3.85;;;7.60;55.00;;;;;;5017642;28;20049;-44
2023/05/03 04:45:52;;;;;;;6.22;4.45;;;7.60;55.00;;;;;;5007941;28;20038;-45
2023/05/03 04:48:22;;;;;;;5.35;4.03;;;7.60;55.10;;;;;;4993450;28;20042;-46
2023/05/03 04:50:51;;;;;;;9.65;5.40;;;7.60;55.30;;;;;;4994142;28;20049;-45
2023/05/03 04:53:21;;;;;;;8.25;4.72;;;7.60;55.30;;;;;;5011561;28;20061;-46
2023/05/03 04:55:57;;;;;;;6.32;5.13;;;7.60;55.50;;;;;;4987651;28;20045;-45
2023/05/03 04:58:24;;;;;;;7.97;6.32;;;7.60;55.60;;;;;;5009332;28;20081;-46
2023/05/03 05:00:52;;;;;;;10.55;5.72;;;7.70;55.80;;;;;;4993035;28;20038;-46
2023/05/03 05:03:24;;;;;;;6.80;5.07;;;7.70;55.90;;;;;;4990610;28;20512;-45
2023/05/03 05:05:53;;;;;;;7.03;5.13;;;7.70;56.10;;;;;;4989973;28;20109;-44
2023/05/03 05:08:20;;;;;;;6.30;5.00;;;7.70;56.30;;;;;;4990924;28;20056;-46
2023/05/03 05:10:51;;;;;;;6.80;5.32;;;7.70;56.40;;;;;;5006372;28;20077;-44
2023/05/03 05:13:25;;;;;;;6.43;4.93;;;7.80;56.40;;;;;;5004624;28;20407;-46
2023/05/03 05:15:55;;;;;;;5.40;4.80;;;7.90;56.60;;;;;;4990976;28;20069;-46
2023/05/03 05:18:22;;;;;;;5.93;5.07;;;7.90;56.50;;;;;;5000864;28;20507;-44
2023/05/03 05:20:50;;;;;;;8.73;5.35;;;7.90;56.60;;;;;;4990412;28;20096;-45
2023/05/03 05:23:18;;;;;;;8.65;4.88;;;8.00;56.90;;;;;;4990449;28;20042;-46
2023/05/03 05:25:46;;;;;;;8.18;5.18;;;8.00;56.80;;;;;;5004681;28;20421;-46
2023/05/03 05:28:13;;;;;;;9.30;5.68;;;8.10;57.00;;;;;;4987435;28;20069;-45
2023/05/03 05:30:40;;;;;;;6.90;5.00;;;8.20;57.10;;;;;;4987677;28;20042;-45
2023/05/03 05:33:07;;;;;;;9.82;5.15;;;8.20;57.30;;;;;;5010309;28;20101;-47
2023/05/03 05:35:35;;;;;;;6.32;5.45;;;8.20;57.50;;;;;;5004686;28;20060;-46
2023/05/03 05:38:03;;;;;;;7.05;4.90;;;8.30;57.60;;;;;;4985460;28;20056;-44
2023/05/03 05:40:35;;;;;;;7.47;5.22;;;8.40;57.80;;;;;;4990318;28;20109;-45
2023/05/03 05:43:01;;;;;;;9.02;5.53;;;8.40;57.80;;;;;;5000730;28;20048;-45
2023/05/03 05:45:33;;;;;;;9.40;6.30;;;8.50;58.00;;;;;;4988904;28;20049;-44
2023/05/03 05:48:08;;;;;;;6.53;5.90;;;8.50;58.30;;;;;;4999605;28;20061;-45
2023/05/03 05:50:37;;;;;;;7.30;5.47;;;8.60;58.90;;;;;;4990888;28;20096;-44
2023/05/03 05:53:08;;;;;;;7.72;5.57;;;8.70;58.70;;;;;;4990324;28;20068;-45
2023/05/03 05:55:44;;;;;;;7.22;5.53;;;8.80;58.70;;;;;;5002329;28;20112;-46
2023/05/03 05:58:12;;;;;;;6.05;5.25;;;8.90;58.90;;;;;;4990936;28;20065;-46
2023/05/03 06:00:44;;;;;;;8.07;5.50;;;9.00;58.60;;;;;;4998231;28;20053;-45
2023/05/03 06:03:14;;;;;;;7.88;6.45;;;9.10;58.60;;;;;;4988422;28;20046;-46
2023/05/03 06:05:43;;;;;;;6.10;5.15;;;9.10;58.60;;;;;;4985790;28;20972;-46
2023/05/03 06:08:13;;;;;;;6.88;6.03;;;9.20;59.30;;;;;;5005225;28;20121;-46
2023/05/03 06:10:44;;;;;;;7.80;5.97;;;9.30;59.10;;;;;;5006038;28;20379;-44
2023/05/03 06:13:10;;;;;;;7.82;5.80;;;9.40;58.90;;;;;;4989728;28;20582;-45
2023/05/03 06:15:40;;;;;;;7.22;5.72;;;9.50;58.70;;;;;;4994207;28;20050;-46
2023/05/03 06:18:10;;;;;;;8.73;6.07;;;9.60;58.60;;;;;;5005253;28;20050;-47
2023/05/03 06:20:39;;;;;;;8.32;6.57;;;9.60;58.60;;;;;;5007849;28;20468;-47
2023/05/03 06:23:06;;;;;;;10.45;6.03;;;9.70;58.50;;;;;;4998078;28;20421;-45
2023/05/03 06:25:36;;;;;;;7.32;5.90;;;9.80;58.20;;;;;;5009555;28;20045;-44
2023/05/03 06:28:06;;;;;;;9.63;5.47;;;9.90;58.10;;;;;;5010819;28;20046;-44
2023/05/03 06:30:34;;;;;;;8.43;5.63;;;9.90;57.90;;;;;;4994605;28;20038;-47
2023/05/03 06:33:06;;;;;;;9.88;5.63;;;10.00;58.20;;;;;;5013656;28;20136;-46
2023/05/03 06:35:35;;;;;;;9.18;6.15;;;10.10;57.70;;;;;;4993213;28;20054;-46
2023/05/03 06:38:02;;;;;;;8.35;5.85;;;10.20;57.80;;;;;;5009004;28;20132;-46
2023/05/03 06:40:32;;;;;;;8.13;5.88;;;10.20;57.80;;;;;;5009952;28;20046;-46
2023/05/03 06:42:58;;;;;;;7.85;5.70;;;10.30;57.60;;;;;;4995475;28;20050;-48
2023/05/03 06:45:35;;;;;;;7.78;6.00;;;10.40;57.40;;;;;;4993026;28;20041;-44
2023/05/03 06:48:06;;;;;;;10.05;5.97;;;10.40;56.80;;;;;;5012446;28;20533;-46
2023/05/03 06:50:33;;;;;;;9.10;6.05;;;10.50;56.70;;;;;;5012451;28;20077;-47
2023/05/03 06:52:59;;;;;;;8.20;6.18;;;10.60;56.90;;;;;;5013068;28;20050;-46
2023/05/03 06:55:33;;;;;;;9.38;6.18;;;10.70;56.70;;;;;;5007464;28;20074;-47
2023/05/03 06:58:08;;;;;;;8.43;5.95;;;10.70;56.50;;;;;;5005026;28;20121;-46
2023/05/03 07:00:37;;;;;;;10.05;5.90;;;10.80;56.60;;;;;;5012302;28;20065;-51
2023/05/03 07:03:11;;;;;;;7.63;5.90;;;10.80;56.20;;;;;;5011720;28;20410;-46
2023/05/03 07:05:40;;;;;;;7.07;5.85;;;10.90;56.10;;;;;;5008127;28;20120;-46
2023/05/03 07:08:07;;;;;;;7.78;6.10;;;10.90;55.90;;;;;;5011587;28;20046;-47
2023/05/03 07:10:33;;;;;;;8.25;6.63;;;11.00;55.80;;;;;;5010257;28;20417;-47
2023/05/03 07:13:03;;;;;;;9.85;6.65;;;11.00;55.90;;;;;;5013867;28;20118;-47
2023/05/03 07:15:30;;;;;;;9.00;6.40;;;11.10;55.80;;;;;;5009356;28;20043;-46
2023/05/03 07:17:57;;;;;;;12.90;6.00;;;11.10;55.60;;;;;;5010300;28;20046;-47
2023/05/03 07:20:25;;;;;;;7.90;5.65;;;11.20;55.40;;;;;;5003919;28;20045;-45
2023/05/03 07:22:51;;;;;;;7.28;6.03;;;11.20;55.30;;;;;;5012837;28;20034;-46
2023/05/03 07:25:20;;;;;;;8.10;6.10;;;11.30;55.30;;;;;;5011588;28;20588;-46
2023/05/03 07:27:50;;;;;;;6.68;4.97;;;11.30;54.90;;;;;;5010840;28;20045;-47
2023/05/03 07:30:21;;;;;;;8.38;5.80;;;11.40;54.80;;;;;;5009376;28;20416;-47
2023/05/03 07:32:47;;;;;;;9.02;5.45;;;11.40;54.50;;;;;;5013244;28;20049;-49
2023/05/03 07:35:18;;;;;;;9.25;5.80;;;11.50;54.60;;;;;;5011813;28;20064;-48
2023/05/03 07:37:46;;;;;;;7.47;5.45;;;11.50;54.60;;;;;;5008193;28;20129;-46
2023/05/03 07:40:15;;;;;;;6.50;5.88;;;11.60;54.50;;;;;;5010855;28;20524;-46
2023/05/03 07:42:46;;;;;;;7.85;6.18;;;11.60;54.40;;;;;;5011753;28;20532;-47
2023/05/03 07:45:15;;;;;;;8.80;5.85;;;11.70;54.30;;;;;;5008456;28;20092;-47
2023/05/03 07:47:47;;;;;;;8.30;5.53;;;11.70;54.20;;;;;;5011024;28;20104;-47
2023/05/03 07:50:16;;;;;;;7.15;5.05;;;11.80;54.30;;;;;;5010878;28;20049;-46
2023/05/03 07:52:45;;;;;;;8.52;5.80;;;11.80;54.10;;;;;;5011518;28;20061;-47
2023/05/03 07:55:15;;;;;;;8.10;6.03;;;11.90;54.10;;;;;;5007996;28;20528;-46
2023/05/03 07:57:48;;;;;;;7.32;5.10;;;11.90;54.00;;;;;;5011116;28;20111;-48
2023/05/03 08:00:16;;;;;;;6.65;5.10;;;12.00;53.70;;;;;;5010519;28;20053;-47
2023/05/03 08:02:49;;;;;;;6.57;5.50;;;12.10;53.50;;;;;;5007939;28;20061;-49
2023/05/03 08:05:22;;;;;;;6.15;4.90;;;12.10;53.40;;;;;;5009892;28;20049;-48
2023/05/03 08:07:57;;;;;;;15.23;5.65;;;12.20;52.90;;;;;;5008038;28;20126;-47
2023/05/03 08:10:29;;;;;;;6.50;5.70;;;12.20;52.80;;;;;;5007664;28;20111;-46
2023/05/03 08:12:59;;;;;;;8.98;5.60;;;12.30;52.50;;;;;;5011003;28;20133;-49
2023/05/03 08:15:28;;;;;;;8.88;6.00;;;12.30;52.60;;;;;;5006826;28;20299;-47
2023/05/03 08:18:04;;;;;;;7.60;5.20;;;12.40;52.60;;;;;;5007731;28;20052;-49
2023/05/03 08:20:35;;;;;;;7.10;5.60;;;12.40;52.50;;;;;;5007118;28;20056;-47
2023/05/03 08:23:11;;;;;;;9.07;5.32;;;12.50;52.30;;;;;;5009979;28;20095;-46
2023/05/03 08:25:38;;;;;;;7.95;5.55;;;12.50;52.40;;;;;;5001436;28;20068;-50
2023/05/03 08:28:07;;;;;;;7.85;5.60;;;12.60;51.50;;;;;;5008732;28;20045;-49
2023/05/03 08:30:34;;;;;;;9.38;5.15;;;12.60;51.30;;;;;;5009916;28;20033;-46
2023/05/03 08:33:03;;;;;;;11.05;5.88;;;12.70;50.90;;;;;;5003582;28;20046;-47
2023/05/03 08:35:30;;;;;;;6.75;5.47;;;12.70;51.00;;;;;;5003741;28;20120;-47
2023/05/03 08:38:01;;;;;;;8.13;5.60;;;12.70;51.20;;;;;;5006282;28;20641;-47
2023/05/03 08:40:28;;;;;;;7.03;4.85;;;12.80;51.40;;;;;;5004906;28;20056;-50
2023/05/03 08:43:06;;;;;;;5.82;4.80;;;12.90;51.50;;;;;;5010891;28;20046;-50
2023/05/03 08:45:35;;;;;;;7.20;4.78;;;12.90;51.50;;;;;;5002156;28;20085;-46
2023/05/03 08:48:04;;;;;;;8.90;5.43;;;13.00;51.00;;;;;;4994025;28;20073;-50
2023/05/03 08:50:35;;;;;;;6.72;4.97;;;13.10;50.90;;;;;;5004735;28;20046;-47
2023/05/03 08:53:03;;;;;;;7.75;5.05;;;13.10;50.70;;;;;;5011032;28;20521;-46
2023/05/03 08:55:30;;;;;;;8.95;5.28;;;13.20;50.30;;;;;;5006984;28;20045;-48
2023/05/03 08:58:00;;;;;;;5.25;4.55;;;13.30;50.10;;;;;;5009857;28;20045;-46
2023/05/03 09:00:30;;;;;;;5.75;4.82;;;13.30;50.00;;;;;;4994140;28;20057;-46
2023/05/03 09:02:57;;;;;;;7.05;5.30;;;13.30;49.90;;;;;;5010112;28;20042;-48
2023/05/03 09:05:29;;;;;;;5.53;4.68;;;13.40;50.30;;;;;;5000632;28;20046;-48
2023/05/03 09:08:06;;;;;;;6.40;4.43;;;13.40;50.50;;;;;;5006885;28;20176;-46
2023/05/03 09:10:42;;;;;;;5.05;4.28;;;13.50;50.10;;;;;;4998968;28;20037;-50
2023/05/03 09:13:11;;;;;;;5.47;4.20;;;13.60;50.20;;;;;;5003538;28;20038;-47
2023/05/03 09:15:45;;;;;;;8.77;4.82;;;13.60;50.10;;;;;;5005954;28;20038;-46
2023/05/03 09:18:14;;;;;;;5.72;4.28;;;13.70;50.20;;;;;;5005117;28;20438;-49
2023/05/03 09:20:57;;;;;;;7.32;5.07;;;13.70;50.00;;;;;;5006966;28;20065;-49
2023/05/03 09:23:29;;;;;;;6.47;4.40;;;13.80;50.00;;;;;;5011295;28;20045;-46
2023/05/03 09:25:59;;;;;;;6.22;4.32;;;13.80;50.00;;;;;;5008848;28;20034;-47
2023/05/03 09:28:27;;;;;;;5.10;4.25;;;13.90;49.40;;;;;;5003522;28;20044;-48
2023/05/03 09:31:05;;;;;;;7.78;4.28;;;14.00;50.00;;;;;;5009365;28;20088;-47
2023/05/03 09:33:32;;;;;;;6.45;4.15;;;14.00;49.70;;;;;;5010934;28;20113;-50
2023/05/03 09:36:04;;;;;;;8.00;4.20;;;14.10;50.10;;;;;;5009233;28;20041;-47
2023/05/03 09:38:36;;;;;;;5.78;4.40;;;14.10;49.70;;;;;;5005810;28;20045;-47
2023/05/03 09:41:05;;;;;;;;;;;14.20;49.00;;;;;;5001837;28;20037;-47
2023/05/03 09:43:46;;;;;;;4.57;3.83;;;14.30;49.30;;;;;;5009447;28;19929;-49
2023/05/03 09:46:13;;;;;;;6.60;4.60;;;14.30;49.60;;;;;;4999276;28;20056;-49
2023/05/03 09:48:40;;;;;;;5.13;3.67;;;14.40;49.20;;;;;;5008173;28;20391;-48
2023/05/03 09:51:12;;;;;;;4.80;4.07;;;14.40;48.70;;;;;;5008853;28;20099;-47
2023/05/03 09:53:40;;;;;;;6.95;4.07;;;14.50;48.30;;;;;;5007607;28;20042;-47
2023/05/03 09:56:13;;;;;;;8.65;3.95;;;14.50;48.30;;;;;;5004340;28;20034;-47
2023/05/03 09:58:45;;;;;;;6.70;4.43;;;14.60;48.60;;;;;;5009914;28;20609;-46
2023/05/03 10:01:13;;;;;;;6.47;4.53;;;14.60;48.10;;;;;;5011615;28;20049;-52
2023/05/03 10:03:56;;;;;;;4.40;3.50;;;14.70;48.30;;;;;;5007902;28;20093;-48
2023/05/03 10:06:29;;;;;;;5.28;3.53;;;14.70;48.60;;;;;;5007977;28;20081;-46
2023/05/03 10:09:04;;;;;;;4.55;4.10;;;14.70;47.80;;;;;;5009367;28;20045;-49
2023/05/03 10:11:35;;;;;;;7.38;4.72;;;14.80;47.80;;;;;;5013843;28;20077;-47
2023/05/03 10:14:05;;;;;;;6.13;4.07;;;14.90;47.80;;;;;;5014144;28;20077;-48
2023/05/03 10:16:37;;;;;;;3.50;3.20;;;14.90;47.40;;;;;;5009100;28;20498;-46
2023/05/03 10:19:34;;;;;;;6.40;3.95;;;15.00;47.80;;;;;;4999560;28;20072;-46
2023/05/03 10:22:13;;;;;;;8.80;3.53;;;15.00;47.70;;;;;;5053917;22;20045;-46
2023/05/03 10:25:00;;;;;;;5.38;3.80;;;15.10;47.60;;;;;;5071499;28;20048;-49
2023/05/03 10:27:54;;;;;;;5.63;3.50;;;15.10;47.30;;;;;;5073270;28;20064;-48
2023/05/03 10:30:33;;;;;;;5.40;4.00;;;15.20;47.20;;;;;;5059594;28;20040;-47
2023/05/03 10:33:14;;;;;;;8.60;4.53;;;15.20;47.10;;;;;;5053450;28;20115;-47
2023/05/03 10:35:51;;;;;;;6.60;4.63;;;15.30;46.80;;;;;;5050464;28;20041;-46
2023/05/03 10:38:22;;;;;;;5.40;3.88;;;15.40;47.20;;;;;;5053361;28;20044;-47
2023/05/03 10:40:51;;;;;;;6.28;4.13;;;15.40;47.30;;;;;;5050702;28;20048;-48
2023/05/03 10:43:35;;;;;;;4.50;4.07;;;15.40;47.20;;;;;;5053986;28;20507;-46
2023/05/03 10:46:31;;;;;;;5.10;4.22;;;15.50;46.90;;;;;;5042454;28;20122;-47
2023/05/03 10:49:14;;;;;;;6.68;3.97;;;15.60;47.40;;;;;;5052492;28;20082;-50
2023/05/03 10:51:44;;;;;;;6.80;4.25;;;15.70;47.00;;;;;;5052340;28;20067;-48
2023/05/03 10:54:13;;;;;;;5.70;4.20;;;15.70;46.30;;;;;;5053024;28;20053;-48
2023/05/03 10:56:48;;;;;;;5.85;4.28;;;15.80;45.90;;;;;;5051738;28;20056;-50
2023/05/03 10:59:17;;;;;;;5.65;4.35;;;15.80;46.10;;;;;;5052427;28;20040;-46
2023/05/03 11:01:51;;;;;;;7.40;4.78;;;15.90;45.80;;;;;;5052713;28;20404;-50
2023/05/03 11:04:34;;;;;;;6.70;4.25;;;15.90;45.30;;;;;;5051968;28;20063;-50
2023/05/03 11:07:01;;;;;;;;;;;16.00;45.80;;;;;;5035672;28;20064;-48
2023/05/03 11:09:32;;;;;;;5.63;4.07;;;16.00;46.30;;;;;;5051048;28;19952;-45
2023/05/03 11:12:03;;;;;;;5.18;4.03;;;16.10;45.80;;;;;;5051404;28;20045;-48
2023/05/03 11:14:33;;;;;;;6.68;3.33;;;16.10;46.10;;;;;;5052742;28;20136;-50
2023/05/03 11:16:59;;;;;;;5.93;4.10;;;16.20;45.40;;;;;;5046123;28;20091;-48
2023/05/03 11:19:31;;;;;;;6.80;3.65;;;16.30;45.40;;;;;;5051694;28;20041;-46
2023/05/03 11:22:00;;;;;;;3.70;3.40;;;16.30;45.30;;;;;;5052251;28;20041;-49
2023/05/03 11:24:29;;;;;;;7.50;5.32;;;16.40;44.80;;;;;;5051909;28;20044;-48
2023/05/03 11:27:05;;;;;;;4.95;4.00;;;16.40;44.70;;;;;;5048358;28;20053;-49
2023/05/03 11:29:34;;;;;;;7.72;3.95;;;16.50;44.80;;;;;;5049614;28;20041;-49
2023/05/03 11:32:01;;;;;;;6.22;4.10;;;16.60;44.70;;;;;;5051925;28;20052;-47
2023/05/03 11:34:28;;;;;;;6.22;4.15;;;16.60;44.10;;;;;;5051488;28;20049;-46
2023/05/03 11:37:07;;;;;;;7.80;5.47;;;16.70;44.40;;;;;;5047334;28;20059;-49
2023/05/03 11:39:40;;;;;;;4.13;3.70;;;16.70;44.90;;;;;;5050610;28;20065;-49
2023/05/03 11:42:13;;;;;;;6.65;4.30;;;16.70;44.30;;;;;;5048409;28;20438;-46
2023/05/03 11:44:40;;;;;;;4.85;3.67;;;16.80;43.70;;;;;;5051092;28;20044;-47
2023/05/03 11:47:12;;;;;;;5.18;4.13;;;16.80;43.80;;;;;;5050099;28;20090;-47
2023/05/03 11:49:39;;;;;;;5.57;3.78;;;16.90;44.00;;;;;;5050944;28;20065;-49
2023/05/03 11:52:10;;;;;;;5.13;3.97;;;17.00;44.60;;;;;;5051805;28;20045;-49
2023/05/03 11:54:37;;;;;;;6.25;4.30;;;17.10;44.00;;;;;;5050084;28;20497;-46
2023/05/03 11:57:12;;;;;;;11.52;4.13;;;17.20;43.90;;;;;;5047559;28;20048;-49
2023/05/03 11:59:46;;;;;;;4.78;3.80;;;17.30;42.60;;;;;;5050812;28;20041;-47
2023/05/03 12:02:14;;;;;;;5.80;3.90;;;17.30;43.10;;;;;;5051750;28;20060;-46
2023/05/03 12:04:47;;;;;;;5.28;4.43;;;17.40;43.50;;;;;;5049731;28;20068;-49
2023/05/03 12:07:15;;;;;;;5.95;3.90;;;17.50;43.30;;;;;;5050477;28;20524;-48
2023/05/03 12:09:53;;;;;;;4.57;3.42;;;17.60;43.20;;;;;;5050000;28;20095;-47
2023/05/03 12:12:53;;;;;;;5.65;3.72;;;17.70;43.20;;;;;;5050554;28;20040;-49
2023/05/03 12:15:30;;;;;;;4.75;3.85;;;17.80;42.20;;;;;;5049001;28;20128;-47
2023/05/03 12:18:01;;;;;;;5.63;4.82;;;17.90;42.40;;;;;;5051215;28;20618;-47
2023/05/03 12:20:36;;;;;;;6.07;4.22;;;18.00;42.40;;;;;;5050505;28;20505;-47
2023/05/03 12:23:07;;;;;;;6.00;4.45;;;18.10;42.50;;;;;;5025434;28;20516;-46
2023/05/03 12:25:39;;;;;;;4.95;4.47;;;18.10;42.40;;;;;;5048958;28;20033;-49
2023/05/03 12:28:13;;;;;;;5.05;3.80;;;18.20;41.90;;;;;;5050591;28;20040;-48
2023/05/03 12:30:49;;;;;;;5.53;3.88;;;18.30;41.60;;;;;;5049942;28;20079;-47
2023/05/03 12:33:20;;;;;;;5.65;3.70;;;18.40;41.70;;;;;;5051998;28;20041;-49
2023/05/03 12:35:49;;;;;;;6.78;3.88;;;18.50;41.20;;;;;;5048904;28;20045;-46
2023/05/03 12:38:22;;;;;;;5.28;4.13;;;18.60;41.10;;;;;;5049832;28;20079;-50
2023/05/03 12:40:51;;;;;;;4.07;3.58;;;18.60;41.20;;;;;;5050027;28;20060;-50
2023/05/03 12:43:23;;;;;;;5.15;3.58;;;18.80;40.70;;;;;;5051762;28;20098;-50
2023/05/03 12:45:50;;;;;;;7.43;4.45;;;18.90;40.40;;;;;;5024188;28;20045;-48
2023/05/03 12:48:42;;;;;;;3.97;3.58;;;18.90;40.70;;;;;;5046706;28;20052;-49
2023/05/03 12:51:13;;;;;;;4.30;3.72;;;19.10;40.50;;;;;;5043369;28;20049;-47
2023/05/03 12:53:51;;;;;;;3.60;3.30;;;19.20;40.70;;;;;;5049704;28;20037;-50
2023/05/03 12:56:21;;;;;;;4.32;3.85;;;19.40;39.90;;;;;;5049645;28;20102;-49
2023/05/03 12:58:51;;;;;;;5.10;3.33;;;19.50;40.00;;;;;;5049877;28;20041;-48
2023/05/03 13:01:38;;;;;;;4.57;3.67;;;19.60;39.10;;;;;;5049549;28;20098;-47
2023/05/03 13:04:11;;;;;;;4.35;3.95;;;19.70;39.50;;;;;;5050502;28;20044;-48
2023/05/03 13:06:43;;;;;;;5.55;4.38;;;19.80;39.30;;;;;;5049888;28;20037;-47
2023/05/03 13:09:16;;;;;;;7.03;4.78;;;19.90;40.10;;;;;;5049843;28;20144;-50
2023/05/03 13:11:51;;;;;;;5.70;4.60;;;19.90;39.70;;;;;;5048961;28;20057;-50